ETAR

Ramstein Air Base Airport

Ramstein, Germany
TAF ETAR 211757Z 2118/2224 33009KT 9999 FEW050 QNH3010INS TEMPO 2118/2120 33012G20KT BECMG 2206/2207 30012KT 9999 BKN025 QNH3020INS TEMPO 2209/2212 30012G20KT BECMG 2220/2221 VRB06KT 9999 SCT020 QNH3032INS TX21/2118Z TN10/2204Z
Issued Valid From Valid To
Jun-21 @ 17:57 UTC
(17 minutes ago)
Jun-21 @ 18:00 UTC
(14 minutes ago)
Jun-23 @ 00:00 UTC
(-1 days ago)
Jun-21 @ 18:00 to Jun-22 @ 06:00
TAF ETAR 211757Z 2118/2224 33009KT 9999 FEW050 QNH3010INS
Wind Visibility Clouds Readings
330° at 9 knots 10,000+ meters
  • Few at 5,000' AGL
Altimeter 30.09" Hg
Pressure 1019 hPa
Temporary Jun-21 @ 18:00 to Jun-21 @ 20:00
TEMPO 2118/2120 33012G20KT
Wind
330° at 12 knots
 Gusting to 20 knots
Becoming Jun-22 @ 06:00 to Jun-22 @ 20:00
BECMG 2206/2207 30012KT 9999 BKN025 QNH3020INS
Wind Visibility Clouds Readings
300° at 12 knots 10,000+ meters
  • Broken at 2,500' AGL
Altimeter 30.21" Hg
Pressure 1023 hPa
Temporary Jun-22 @ 09:00 to Jun-22 @ 12:00
TEMPO 2209/2212 30012G20KT
Wind
300° at 12 knots
 Gusting to 20 knots
Becoming Jun-22 @ 20:00 to Jun-23 @ 00:00
BECMG 2220/2221 VRB06KT 9999 SCT020 QNH3032INS TX21/2118Z TN10/2204Z
Wind Visibility Clouds Readings
Variable at 6 knots 10,000+ meters
  • Scattered at 2,000' AGL
Altimeter 30.32" Hg
Pressure 1027 hPa
TAF ETAR 211757Z 2118/2224 33009KT 9999 FEW050 QNH3010INS TEMPO 2118/2120 33012G20KT BECMG 2206/2207 30012KT 9999 BKN025 QNH3020INS TEMPO 2209/2212 30012G20KT BECMG 2220/2221 VRB06KT 9999 SCT020 QNH3032INS TX21/2118Z TN10/2204Z
Issued Jun-21 @ 17:57 UTC
(17 minutes ago)
Valid From Jun-21 @ 18:00 UTC
(14 minutes ago)
Valid To Jun-23 @ 00:00 UTC
(-1 days ago)
Jun-21 @ 18:00 - Jun-22 @ 06:00
Wind Visibility
330° at 9 knots 10,000+ meters
Clouds
  • Few at 5,000' AGL
Temporary Jun-21 @ 18:00 - Jun-21 @ 20:00
Wind
330° at 12 knots
 Gusting to 20 knots
Becoming Jun-22 @ 06:00 - Jun-22 @ 20:00
Wind Visibility
300° at 12 knots 10,000+ meters
Clouds
  • Broken at 2,500' AGL
Temporary Jun-22 @ 09:00 - Jun-22 @ 12:00
Wind
300° at 12 knots
 Gusting to 20 knots
Becoming Jun-22 @ 20:00 - Jun-23 @ 00:00
Wind Visibility
Variable at 6 knots 10,000+ meters
Clouds
  • Scattered at 2,000' AGL